sensor_id;sensor_type;location;lat;lon;timestamp;P1;durP1;ratioP1;P2;durP2;ratioP2
56820;SDS011;42702;50.178;20.992;2022-10-18T00:01:05;11.70;;;9.60;;
56820;SDS011;42702;50.178;20.992;2022-10-18T00:03:40;13.20;;;8.80;;
56820;SDS011;42702;50.178;20.992;2022-10-18T00:06:09;13.30;;;9.30;;
56820;SDS011;42702;50.178;20.992;2022-10-18T00:08:37;13.90;;;10.10;;
56820;SDS011;42702;50.178;20.992;2022-10-18T00:11:06;15.50;;;9.20;;
56820;SDS011;42702;50.178;20.992;2022-10-18T00:13:34;15.50;;;9.30;;
56820;SDS011;42702;50.178;20.992;2022-10-18T00:16:04;15.20;;;9.70;;
56820;SDS011;42702;50.178;20.992;2022-10-18T00:18:36;18.00;;;10.60;;
56820;SDS011;42702;50.178;20.992;2022-10-18T00:21:05;16.80;;;11.30;;
56820;SDS011;42702;50.178;20.992;2022-10-18T00:23:36;19.00;;;12.70;;
56820;SDS011;42702;50.178;20.992;2022-10-18T00:26:07;17.50;;;11.30;;
56820;SDS011;42702;50.178;20.992;2022-10-18T00:28:38;16.90;;;11.30;;
56820;SDS011;42702;50.178;20.992;2022-10-18T00:31:17;15.60;;;11.40;;
56820;SDS011;42702;50.178;20.992;2022-10-18T00:33:55;16.90;;;12.70;;
56820;SDS011;42702;50.178;20.992;2022-10-18T00:36:25;20.70;;;13.70;;
56820;SDS011;42702;50.178;20.992;2022-10-18T00:38:55;20.40;;;14.90;;
56820;SDS011;42702;50.178;20.992;2022-10-18T00:41:25;23.70;;;16.20;;
56820;SDS011;42702;50.178;20.992;2022-10-18T00:43:58;28.80;;;18.80;;
56820;SDS011;42702;50.178;20.992;2022-10-18T00:47:03;27.00;;;19.90;;
56820;SDS011;42702;50.178;20.992;2022-10-18T00:49:36;25.90;;;19.10;;
56820;SDS011;42702;50.178;20.992;2022-10-18T00:52:33;18.10;;;13.50;;
56820;SDS011;42702;50.178;20.992;2022-10-18T00:55:03;15.60;;;12.30;;
56820;SDS011;42702;50.178;20.992;2022-10-18T00:57:33;15.90;;;13.40;;
56820;SDS011;42702;50.178;20.992;2022-10-18T01:00:02;17.40;;;13.20;;
56820;SDS011;42702;50.178;20.992;2022-10-18T01:02:36;14.40;;;11.10;;
56820;SDS011;42702;50.178;20.992;2022-10-18T01:05:07;14.30;;;11.30;;
56820;SDS011;42702;50.178;20.992;2022-10-18T01:16:24;13.50;;;9.00;;
56820;SDS011;42702;50.178;20.992;2022-10-18T01:21:47;14.00;;;9.00;;
56820;SDS011;42702;50.178;20.992;2022-10-18T01:33:37;14.00;;;8.70;;
56820;SDS011;42702;50.178;20.992;2022-10-18T01:38:41;13.20;;;9.10;;
56820;SDS011;42702;50.178;20.992;2022-10-18T01:41:11;15.90;;;9.70;;
56820;SDS011;42702;50.178;20.992;2022-10-18T01:43:42;12.30;;;8.30;;
56820;SDS011;42702;50.178;20.992;2022-10-18T01:46:14;13.40;;;8.90;;
56820;SDS011;42702;50.178;20.992;2022-10-18T01:48:46;14.00;;;8.60;;
56820;SDS011;42702;50.178;20.992;2022-10-18T01:51:21;11.10;;;8.40;;
56820;SDS011;42702;50.178;20.992;2022-10-18T01:53:55;12.50;;;8.90;;
56820;SDS011;42702;50.178;20.992;2022-10-18T02:04:44;10.80;;;7.80;;
56820;SDS011;42702;50.178;20.992;2022-10-18T02:07:31;12.40;;;7.70;;
56820;SDS011;42702;50.178;20.992;2022-10-18T02:10:08;10.70;;;8.10;;
56820;SDS011;42702;50.178;20.992;2022-10-18T02:12:47;13.50;;;7.90;;
56820;SDS011;42702;50.178;20.992;2022-10-18T02:15:22;10.80;;;8.00;;
56820;SDS011;42702;50.178;20.992;2022-10-18T02:18:05;14.20;;;8.50;;
56820;SDS011;42702;50.178;20.992;2022-10-18T02:20:38;11.00;;;7.40;;
56820;SDS011;42702;50.178;20.992;2022-10-18T02:23:07;12.10;;;7.20;;
56820;SDS011;42702;50.178;20.992;2022-10-18T02:25:37;9.70;;;7.60;;
56820;SDS011;42702;50.178;20.992;2022-10-18T02:28:05;9.90;;;7.70;;
56820;SDS011;42702;50.178;20.992;2022-10-18T02:30:36;10.30;;;7.50;;
56820;SDS011;42702;50.178;20.992;2022-10-18T02:33:19;11.40;;;8.50;;
56820;SDS011;42702;50.178;20.992;2022-10-18T02:36:17;12.60;;;8.20;;
56820;SDS011;42702;50.178;20.992;2022-10-18T02:38:51;11.80;;;8.90;;
56820;SDS011;42702;50.178;20.992;2022-10-18T02:41:23;14.60;;;9.50;;
56820;SDS011;42702;50.178;20.992;2022-10-18T02:43:53;15.10;;;9.40;;
56820;SDS011;42702;50.178;20.992;2022-10-18T02:46:21;12.60;;;9.10;;
56820;SDS011;42702;50.178;20.992;2022-10-18T02:48:50;14.50;;;9.60;;
56820;SDS011;42702;50.178;20.992;2022-10-18T02:51:18;11.30;;;8.70;;
56820;SDS011;42702;50.178;20.992;2022-10-18T02:53:46;13.50;;;6.80;;
56820;SDS011;42702;50.178;20.992;2022-10-18T02:56:14;11.20;;;7.50;;
56820;SDS011;42702;50.178;20.992;2022-10-18T02:58:43;11.20;;;7.40;;
56820;SDS011;42702;50.178;20.992;2022-10-18T03:01:11;9.20;;;7.50;;
56820;SDS011;42702;50.178;20.992;2022-10-18T03:03:39;10.10;;;7.40;;
56820;SDS011;42702;50.178;20.992;2022-10-18T03:06:07;11.40;;;6.90;;
56820;SDS011;42702;50.178;20.992;2022-10-18T03:08:35;12.60;;;7.90;;
56820;SDS011;42702;50.178;20.992;2022-10-18T03:11:04;12.10;;;7.80;;
56820;SDS011;42702;50.178;20.992;2022-10-18T03:13:32;13.50;;;8.60;;
56820;SDS011;42702;50.178;20.992;2022-10-18T03:16:01;9.90;;;7.00;;
56820;SDS011;42702;50.178;20.992;2022-10-18T03:18:29;10.10;;;8.10;;
56820;SDS011;42702;50.178;20.992;2022-10-18T03:20:57;9.90;;;7.70;;
56820;SDS011;42702;50.178;20.992;2022-10-18T03:23:30;15.00;;;7.90;;
56820;SDS011;42702;50.178;20.992;2022-10-18T03:25:58;11.70;;;6.90;;
56820;SDS011;42702;50.178;20.992;2022-10-18T03:28:26;11.80;;;7.10;;
56820;SDS011;42702;50.178;20.992;2022-10-18T03:31:01;13.00;;;8.00;;
56820;SDS011;42702;50.178;20.992;2022-10-18T03:33:31;11.70;;;7.00;;
56820;SDS011;42702;50.178;20.992;2022-10-18T03:35:59;12.30;;;7.10;;
56820;SDS011;42702;50.178;20.992;2022-10-18T03:38:27;11.60;;;7.30;;
56820;SDS011;42702;50.178;20.992;2022-10-18T03:40:55;10.60;;;7.30;;
56820;SDS011;42702;50.178;20.992;2022-10-18T03:43:23;10.60;;;7.50;;
56820;SDS011;42702;50.178;20.992;2022-10-18T03:45:51;13.20;;;7.50;;
56820;SDS011;42702;50.178;20.992;2022-10-18T03:48:19;10.40;;;7.40;;
56820;SDS011;42702;50.178;20.992;2022-10-18T03:50:47;12.00;;;7.50;;
56820;SDS011;42702;50.178;20.992;2022-10-18T03:53:15;13.50;;;9.10;;
56820;SDS011;42702;50.178;20.992;2022-10-18T03:55:43;10.10;;;7.80;;
56820;SDS011;42702;50.178;20.992;2022-10-18T03:58:11;12.30;;;6.80;;
56820;SDS011;42702;50.178;20.992;2022-10-18T04:00:40;13.80;;;7.60;;
56820;SDS011;42702;50.178;20.992;2022-10-18T04:03:08;12.30;;;8.00;;
56820;SDS011;42702;50.178;20.992;2022-10-18T04:05:36;13.90;;;7.70;;
56820;SDS011;42702;50.178;20.992;2022-10-18T04:08:04;14.10;;;8.10;;
56820;SDS011;42702;50.178;20.992;2022-10-18T04:10:32;11.30;;;7.90;;
56820;SDS011;42702;50.178;20.992;2022-10-18T04:13:00;10.70;;;7.80;;
56820;SDS011;42702;50.178;20.992;2022-10-18T04:15:28;15.40;;;7.30;;
56820;SDS011;42702;50.178;20.992;2022-10-18T04:17:56;10.80;;;7.40;;
56820;SDS011;42702;50.178;20.992;2022-10-18T04:20:25;11.10;;;7.50;;
56820;SDS011;42702;50.178;20.992;2022-10-18T04:22:53;13.40;;;7.40;;
56820;SDS011;42702;50.178;20.992;2022-10-18T04:25:24;10.60;;;8.20;;
56820;SDS011;42702;50.178;20.992;2022-10-18T04:27:52;11.20;;;7.30;;
56820;SDS011;42702;50.178;20.992;2022-10-18T04:30:20;13.60;;;8.00;;
56820;SDS011;42702;50.178;20.992;2022-10-18T04:32:48;10.10;;;7.90;;
56820;SDS011;42702;50.178;20.992;2022-10-18T04:35:16;12.50;;;8.20;;
56820;SDS011;42702;50.178;20.992;2022-10-18T04:37:44;14.90;;;7.20;;
56820;SDS011;42702;50.178;20.992;2022-10-18T04:40:12;14.60;;;7.70;;
56820;SDS011;42702;50.178;20.992;2022-10-18T04:42:40;12.90;;;7.70;;
56820;SDS011;42702;50.178;20.992;2022-10-18T04:45:08;13.60;;;9.00;;
56820;SDS011;42702;50.178;20.992;2022-10-18T04:47:37;12.10;;;7.90;;
56820;SDS011;42702;50.178;20.992;2022-10-18T04:50:05;15.80;;;9.20;;
56820;SDS011;42702;50.178;20.992;2022-10-18T04:52:34;18.00;;;8.40;;
56820;SDS011;42702;50.178;20.992;2022-10-18T04:55:02;17.40;;;7.80;;
56820;SDS011;42702;50.178;20.992;2022-10-18T04:57:31;14.10;;;7.50;;
56820;SDS011;42702;50.178;20.992;2022-10-18T04:59:59;12.50;;;7.90;;
56820;SDS011;42702;50.178;20.992;2022-10-18T05:02:27;13.20;;;8.40;;
56820;SDS011;42702;50.178;20.992;2022-10-18T05:04:56;10.30;;;8.20;;
56820;SDS011;42702;50.178;20.992;2022-10-18T05:07:24;11.90;;;7.80;;
56820;SDS011;42702;50.178;20.992;2022-10-18T05:09:52;14.80;;;8.50;;
56820;SDS011;42702;50.178;20.992;2022-10-18T05:12:20;13.60;;;7.90;;
56820;SDS011;42702;50.178;20.992;2022-10-18T05:14:49;11.70;;;8.40;;
56820;SDS011;42702;50.178;20.992;2022-10-18T05:17:17;15.40;;;8.40;;
56820;SDS011;42702;50.178;20.992;2022-10-18T05:19:45;12.00;;;8.00;;
56820;SDS011;42702;50.178;20.992;2022-10-18T05:22:13;10.50;;;8.00;;
56820;SDS011;42702;50.178;20.992;2022-10-18T05:24:41;12.90;;;7.90;;
56820;SDS011;42702;50.178;20.992;2022-10-18T05:27:09;14.70;;;8.50;;
56820;SDS011;42702;50.178;20.992;2022-10-18T05:29:37;13.90;;;8.10;;
56820;SDS011;42702;50.178;20.992;2022-10-18T05:32:05;15.30;;;8.70;;
56820;SDS011;42702;50.178;20.992;2022-10-18T05:34:33;16.40;;;9.70;;
56820;SDS011;42702;50.178;20.992;2022-10-18T05:37:01;13.10;;;9.10;;
56820;SDS011;42702;50.178;20.992;2022-10-18T05:39:29;14.50;;;8.20;;
56820;SDS011;42702;50.178;20.992;2022-10-18T05:41:58;14.20;;;9.40;;
56820;SDS011;42702;50.178;20.992;2022-10-18T05:44:26;16.20;;;9.50;;
56820;SDS011;42702;50.178;20.992;2022-10-18T05:46:54;12.20;;;7.60;;
56820;SDS011;42702;50.178;20.992;2022-10-18T05:49:22;14.10;;;9.20;;
56820;SDS011;42702;50.178;20.992;2022-10-18T05:51:51;18.50;;;10.10;;
56820;SDS011;42702;50.178;20.992;2022-10-18T05:54:19;17.60;;;8.80;;
56820;SDS011;42702;50.178;20.992;2022-10-18T05:56:47;17.10;;;9.70;;
56820;SDS011;42702;50.178;20.992;2022-10-18T05:59:15;15.30;;;10.00;;
56820;SDS011;42702;50.178;20.992;2022-10-18T06:01:43;16.80;;;9.20;;
56820;SDS011;42702;50.178;20.992;2022-10-18T06:04:12;14.20;;;8.60;;
56820;SDS011;42702;50.178;20.992;2022-10-18T06:06:40;13.60;;;9.00;;
56820;SDS011;42702;50.178;20.992;2022-10-18T06:09:08;16.20;;;9.10;;
56820;SDS011;42702;50.178;20.992;2022-10-18T06:11:36;15.70;;;8.90;;
56820;SDS011;42702;50.178;20.992;2022-10-18T06:14:06;12.50;;;8.00;;
56820;SDS011;42702;50.178;20.992;2022-10-18T06:16:34;14.20;;;8.50;;
56820;SDS011;42702;50.178;20.992;2022-10-18T06:19:03;13.80;;;9.40;;
56820;SDS011;42702;50.178;20.992;2022-10-18T06:21:31;15.30;;;9.50;;
56820;SDS011;42702;50.178;20.992;2022-10-18T06:23:59;13.40;;;8.60;;
56820;SDS011;42702;50.178;20.992;2022-10-18T06:26:27;11.90;;;8.30;;
56820;SDS011;42702;50.178;20.992;2022-10-18T06:28:56;14.80;;;9.70;;
56820;SDS011;42702;50.178;20.992;2022-10-18T06:31:24;13.40;;;8.90;;
56820;SDS011;42702;50.178;20.992;2022-10-18T06:33:54;15.30;;;9.50;;
56820;SDS011;42702;50.178;20.992;2022-10-18T06:36:23;17.90;;;9.30;;
56820;SDS011;42702;50.178;20.992;2022-10-18T06:38:52;14.10;;;8.30;;
56820;SDS011;42702;50.178;20.992;2022-10-18T06:41:21;16.00;;;8.30;;
56820;SDS011;42702;50.178;20.992;2022-10-18T06:43:50;13.00;;;8.50;;
56820;SDS011;42702;50.178;20.992;2022-10-18T06:46:20;12.70;;;8.40;;
56820;SDS011;42702;50.178;20.992;2022-10-18T06:48:48;13.40;;;8.60;;
56820;SDS011;42702;50.178;20.992;2022-10-18T06:51:16;14.50;;;9.20;;
56820;SDS011;42702;50.178;20.992;2022-10-18T06:53:45;18.60;;;9.70;;
56820;SDS011;42702;50.178;20.992;2022-10-18T06:56:26;19.20;;;10.00;;
56820;SDS011;42702;50.178;20.992;2022-10-18T06:58:54;17.20;;;9.40;;
56820;SDS011;42702;50.178;20.992;2022-10-18T07:01:22;14.50;;;8.50;;
56820;SDS011;42702;50.178;20.992;2022-10-18T07:03:51;13.00;;;8.60;;
56820;SDS011;42702;50.178;20.992;2022-10-18T07:06:20;16.90;;;9.60;;
56820;SDS011;42702;50.178;20.992;2022-10-18T07:08:50;17.30;;;9.30;;
56820;SDS011;42702;50.178;20.992;2022-10-18T07:11:23;21.70;;;9.60;;
56820;SDS011;42702;50.178;20.992;2022-10-18T07:13:53;12.50;;;9.10;;
56820;SDS011;42702;50.178;20.992;2022-10-18T07:16:27;13.50;;;8.60;;
56820;SDS011;42702;50.178;20.992;2022-10-18T07:18:55;15.60;;;8.90;;
56820;SDS011;42702;50.178;20.992;2022-10-18T07:21:24;18.60;;;9.30;;
56820;SDS011;42702;50.178;20.992;2022-10-18T07:23:54;13.30;;;9.20;;
56820;SDS011;42702;50.178;20.992;2022-10-18T07:26:27;19.60;;;8.80;;
56820;SDS011;42702;50.178;20.992;2022-10-18T07:28:58;16.10;;;9.30;;
56820;SDS011;42702;50.178;20.992;2022-10-18T07:33:57;15.40;;;9.20;;
56820;SDS011;42702;50.178;20.992;2022-10-18T07:36:25;12.70;;;8.20;;
56820;SDS011;42702;50.178;20.992;2022-10-18T07:38:53;15.00;;;8.80;;
56820;SDS011;42702;50.178;20.992;2022-10-18T07:41:21;15.60;;;10.20;;
56820;SDS011;42702;50.178;20.992;2022-10-18T07:43:50;13.10;;;8.80;;
56820;SDS011;42702;50.178;20.992;2022-10-18T07:46:20;14.90;;;8.20;;
56820;SDS011;42702;50.178;20.992;2022-10-18T07:48:49;14.70;;;10.00;;
56820;SDS011;42702;50.178;20.992;2022-10-18T07:51:18;14.50;;;9.80;;
56820;SDS011;42702;50.178;20.992;2022-10-18T07:53:48;18.20;;;9.60;;
56820;SDS011;42702;50.178;20.992;2022-10-18T07:56:18;14.10;;;9.60;;
56820;SDS011;42702;50.178;20.992;2022-10-18T07:58:49;16.70;;;10.10;;
56820;SDS011;42702;50.178;20.992;2022-10-18T08:01:19;11.80;;;7.70;;
56820;SDS011;42702;50.178;20.992;2022-10-18T08:03:49;13.30;;;7.60;;
56820;SDS011;42702;50.178;20.992;2022-10-18T08:06:18;11.70;;;7.70;;
56820;SDS011;42702;50.178;20.992;2022-10-18T08:08:47;11.90;;;7.40;;
56820;SDS011;42702;50.178;20.992;2022-10-18T08:11:17;14.50;;;8.20;;
56820;SDS011;42702;50.178;20.992;2022-10-18T08:13:47;13.60;;;8.30;;
56820;SDS011;42702;50.178;20.992;2022-10-18T08:16:34;14.20;;;8.10;;
56820;SDS011;42702;50.178;20.992;2022-10-18T08:19:02;11.30;;;7.70;;
56820;SDS011;42702;50.178;20.992;2022-10-18T08:21:30;13.50;;;8.40;;
56820;SDS011;42702;50.178;20.992;2022-10-18T08:23:59;11.00;;;7.30;;
56820;SDS011;42702;50.178;20.992;2022-10-18T08:26:27;14.70;;;8.40;;
56820;SDS011;42702;50.178;20.992;2022-10-18T08:28:55;14.50;;;8.20;;
56820;SDS011;42702;50.178;20.992;2022-10-18T08:31:43;11.50;;;8.10;;
56820;SDS011;42702;50.178;20.992;2022-10-18T08:34:12;9.60;;;7.10;;
56820;SDS011;42702;50.178;20.992;2022-10-18T08:36:46;11.50;;;7.10;;
56820;SDS011;42702;50.178;20.992;2022-10-18T08:39:14;11.30;;;7.50;;
56820;SDS011;42702;50.178;20.992;2022-10-18T08:44:25;11.50;;;6.90;;
56820;SDS011;42702;50.178;20.992;2022-10-18T08:47:03;13.00;;;7.30;;
56820;SDS011;42702;50.178;20.992;2022-10-18T08:55:22;12.40;;;6.50;;
56820;SDS011;42702;50.178;20.992;2022-10-18T08:57:55;13.00;;;7.10;;
56820;SDS011;42702;50.178;20.992;2022-10-18T09:00:26;10.50;;;7.10;;
56820;SDS011;42702;50.178;20.992;2022-10-18T09:06:10;12.10;;;7.10;;
56820;SDS011;42702;50.178;20.992;2022-10-18T09:08:55;12.90;;;6.80;;
56820;SDS011;42702;50.178;20.992;2022-10-18T09:20:32;15.40;;;7.00;;
56820;SDS011;42702;50.178;20.992;2022-10-18T09:23:19;10.00;;;6.20;;
56820;SDS011;42702;50.178;20.992;2022-10-18T09:25:55;12.20;;;6.70;;
56820;SDS011;42702;50.178;20.992;2022-10-18T09:34:00;8.20;;;5.90;;
56820;SDS011;42702;50.178;20.992;2022-10-18T09:36:35;15.50;;;6.60;;
56820;SDS011;42702;50.178;20.992;2022-10-18T09:41:40;11.90;;;7.10;;
56820;SDS011;42702;50.178;20.992;2022-10-18T09:44:20;12.50;;;7.00;;
56820;SDS011;42702;50.178;20.992;2022-10-18T09:46:54;13.70;;;6.40;;
56820;SDS011;42702;50.178;20.992;2022-10-18T09:49:33;10.70;;;6.50;;
56820;SDS011;42702;50.178;20.992;2022-10-18T09:52:07;13.10;;;6.80;;
56820;SDS011;42702;50.178;20.992;2022-10-18T09:55:02;9.10;;;6.50;;
56820;SDS011;42702;50.178;20.992;2022-10-18T09:57:41;11.90;;;6.80;;
56820;SDS011;42702;50.178;20.992;2022-10-18T10:00:34;11.00;;;6.30;;
56820;SDS011;42702;50.178;20.992;2022-10-18T10:03:15;14.70;;;6.60;;
56820;SDS011;42702;50.178;20.992;2022-10-18T10:05:44;10.10;;;6.30;;
56820;SDS011;42702;50.178;20.992;2022-10-18T10:08:12;9.70;;;5.90;;
56820;SDS011;42702;50.178;20.992;2022-10-18T10:10:44;8.60;;;5.70;;
56820;SDS011;42702;50.178;20.992;2022-10-18T10:13:17;5.60;;;4.90;;
56820;SDS011;42702;50.178;20.992;2022-10-18T10:15:52;10.70;;;6.10;;
56820;SDS011;42702;50.178;20.992;2022-10-18T10:18:30;11.30;;;5.90;;
56820;SDS011;42702;50.178;20.992;2022-10-18T10:21:07;7.10;;;5.40;;
56820;SDS011;42702;50.178;20.992;2022-10-18T10:23:46;8.50;;;5.60;;
56820;SDS011;42702;50.178;20.992;2022-10-18T10:26:21;8.00;;;5.90;;
56820;SDS011;42702;50.178;20.992;2022-10-18T10:28:50;9.40;;;6.00;;
56820;SDS011;42702;50.178;20.992;2022-10-18T10:31:29;13.70;;;5.80;;
56820;SDS011;42702;50.178;20.992;2022-10-18T10:36:30;7.20;;;5.40;;
56820;SDS011;42702;50.178;20.992;2022-10-18T10:39:08;8.90;;;5.70;;
56820;SDS011;42702;50.178;20.992;2022-10-18T10:41:39;11.10;;;5.60;;
56820;SDS011;42702;50.178;20.992;2022-10-18T10:44:27;7.30;;;5.50;;
56820;SDS011;42702;50.178;20.992;2022-10-18T10:47:01;8.50;;;5.80;;
56820;SDS011;42702;50.178;20.992;2022-10-18T10:52:16;8.00;;;5.40;;
56820;SDS011;42702;50.178;20.992;2022-10-18T10:55:03;6.50;;;5.30;;
56820;SDS011;42702;50.178;20.992;2022-10-18T10:57:53;9.00;;;5.40;;
56820;SDS011;42702;50.178;20.992;2022-10-18T11:03:10;10.80;;;5.80;;
56820;SDS011;42702;50.178;20.992;2022-10-18T11:05:56;9.30;;;5.80;;
56820;SDS011;42702;50.178;20.992;2022-10-18T11:11:08;9.90;;;5.60;;
56820;SDS011;42702;50.178;20.992;2022-10-18T11:13:47;9.60;;;6.00;;
56820;SDS011;42702;50.178;20.992;2022-10-18T11:16:41;9.50;;;6.00;;
56820;SDS011;42702;50.178;20.992;2022-10-18T11:22:22;10.40;;;6.60;;
56820;SDS011;42702;50.178;20.992;2022-10-18T11:24:55;9.70;;;6.00;;
56820;SDS011;42702;50.178;20.992;2022-10-18T11:27:27;9.50;;;6.20;;
56820;SDS011;42702;50.178;20.992;2022-10-18T11:38:33;12.60;;;7.20;;
56820;SDS011;42702;50.178;20.992;2022-10-18T11:43:54;11.60;;;6.70;;
56820;SDS011;42702;50.178;20.992;2022-10-18T11:46:36;11.50;;;7.10;;
56820;SDS011;42702;50.178;20.992;2022-10-18T11:52:12;12.00;;;6.20;;
56820;SDS011;42702;50.178;20.992;2022-10-18T11:57:49;8.80;;;5.80;;
56820;SDS011;42702;50.178;20.992;2022-10-18T12:00:28;8.90;;;5.60;;
56820;SDS011;42702;50.178;20.992;2022-10-18T12:03:14;8.90;;;5.30;;
56820;SDS011;42702;50.178;20.992;2022-10-18T12:06:04;10.00;;;5.60;;
56820;SDS011;42702;50.178;20.992;2022-10-18T12:08:40;7.90;;;5.60;;
56820;SDS011;42702;50.178;20.992;2022-10-18T12:11:23;10.30;;;5.80;;
56820;SDS011;42702;50.178;20.992;2022-10-18T12:14:19;8.80;;;5.40;;
56820;SDS011;42702;50.178;20.992;2022-10-18T12:16:48;6.10;;;4.80;;
56820;SDS011;42702;50.178;20.992;2022-10-18T12:19:25;7.20;;;5.40;;
56820;SDS011;42702;50.178;20.992;2022-10-18T12:21:56;6.90;;;4.80;;
56820;SDS011;42702;50.178;20.992;2022-10-18T12:24:37;9.90;;;5.90;;
56820;SDS011;42702;50.178;20.992;2022-10-18T12:27:08;6.70;;;4.90;;
56820;SDS011;42702;50.178;20.992;2022-10-18T12:29:46;7.80;;;5.20;;
56820;SDS011;42702;50.178;20.992;2022-10-18T12:32:21;8.70;;;5.50;;
56820;SDS011;42702;50.178;20.992;2022-10-18T12:34:58;7.00;;;4.80;;
56820;SDS011;42702;50.178;20.992;2022-10-18T12:37:42;11.10;;;5.10;;
56820;SDS011;42702;50.178;20.992;2022-10-18T12:42:59;7.60;;;5.00;;
56820;SDS011;42702;50.178;20.992;2022-10-18T12:45:45;9.80;;;5.50;;
56820;SDS011;42702;50.178;20.992;2022-10-18T12:48:36;8.30;;;5.40;;
56820;SDS011;42702;50.178;20.992;2022-10-18T12:51:12;6.80;;;5.00;;
56820;SDS011;42702;50.178;20.992;2022-10-18T12:53:45;9.30;;;5.10;;
56820;SDS011;42702;50.178;20.992;2022-10-18T13:09:33;7.50;;;4.60;;
56820;SDS011;42702;50.178;20.992;2022-10-18T13:18:05;10.00;;;4.60;;
56820;SDS011;42702;50.178;20.992;2022-10-18T13:20:48;7.60;;;4.70;;
56820;SDS011;42702;50.178;20.992;2022-10-18T13:34:23;5.90;;;4.50;;
56820;SDS011;42702;50.178;20.992;2022-10-18T13:37:02;6.00;;;4.80;;
56820;SDS011;42702;50.178;20.992;2022-10-18T13:39:33;7.00;;;4.30;;
56820;SDS011;42702;50.178;20.992;2022-10-18T13:44:33;11.60;;;4.90;;
56820;SDS011;42702;50.178;20.992;2022-10-18T13:47:08;5.80;;;4.50;;
56820;SDS011;42702;50.178;20.992;2022-10-18T13:55:19;7.10;;;5.00;;
56820;SDS011;42702;50.178;20.992;2022-10-18T14:01:41;6.70;;;4.50;;
56820;SDS011;42702;50.178;20.992;2022-10-18T14:07:47;6.10;;;4.40;;
56820;SDS011;42702;50.178;20.992;2022-10-18T14:13:35;6.00;;;4.00;;
56820;SDS011;42702;50.178;20.992;2022-10-18T14:16:33;5.60;;;4.50;;
56820;SDS011;42702;50.178;20.992;2022-10-18T14:19:32;10.00;;;4.80;;
56820;SDS011;42702;50.178;20.992;2022-10-18T14:22:09;8.50;;;4.50;;
56820;SDS011;42702;50.178;20.992;2022-10-18T14:24:39;7.50;;;4.60;;
56820;SDS011;42702;50.178;20.992;2022-10-18T14:27:28;7.50;;;4.60;;
56820;SDS011;42702;50.178;20.992;2022-10-18T14:30:09;7.50;;;5.10;;
56820;SDS011;42702;50.178;20.992;2022-10-18T14:32:41;7.80;;;5.60;;
56820;SDS011;42702;50.178;20.992;2022-10-18T14:35:18;12.80;;;8.80;;
56820;SDS011;42702;50.178;20.992;2022-10-18T14:38:04;9.50;;;5.90;;
56820;SDS011;42702;50.178;20.992;2022-10-18T14:40:40;7.00;;;5.10;;
56820;SDS011;42702;50.178;20.992;2022-10-18T14:45:40;6.70;;;5.20;;
56820;SDS011;42702;50.178;20.992;2022-10-18T14:48:13;16.10;;;6.20;;
56820;SDS011;42702;50.178;20.992;2022-10-18T14:50:49;37.20;;;9.10;;
56820;SDS011;42702;50.178;20.992;2022-10-18T14:53:36;61.90;;;12.10;;
56820;SDS011;42702;50.178;20.992;2022-10-18T14:56:06;68.20;;;10.90;;
56820;SDS011;42702;50.178;20.992;2022-10-18T14:58:35;49.80;;;10.40;;
56820;SDS011;42702;50.178;20.992;2022-10-18T15:01:04;37.30;;;10.20;;
56820;SDS011;42702;50.178;20.992;2022-10-18T15:03:33;31.70;;;7.90;;
56820;SDS011;42702;50.178;20.992;2022-10-18T15:06:03;26.90;;;8.00;;
56820;SDS011;42702;50.178;20.992;2022-10-18T15:08:36;18.40;;;7.10;;
56820;SDS011;42702;50.178;20.992;2022-10-18T15:11:07;22.30;;;7.20;;
56820;SDS011;42702;50.178;20.992;2022-10-18T15:13:47;16.20;;;6.80;;
56820;SDS011;42702;50.178;20.992;2022-10-18T15:16:21;15.60;;;7.00;;
56820;SDS011;42702;50.178;20.992;2022-10-18T15:21:34;13.00;;;6.80;;
56820;SDS011;42702;50.178;20.992;2022-10-18T15:26:53;12.60;;;6.10;;
56820;SDS011;42702;50.178;20.992;2022-10-18T15:29:23;8.70;;;6.40;;
56820;SDS011;42702;50.178;20.992;2022-10-18T15:31:51;11.40;;;6.00;;
56820;SDS011;42702;50.178;20.992;2022-10-18T15:34:26;10.30;;;6.30;;
56820;SDS011;42702;50.178;20.992;2022-10-18T15:36:54;11.60;;;6.00;;
56820;SDS011;42702;50.178;20.992;2022-10-18T15:39:24;13.30;;;7.80;;
56820;SDS011;42702;50.178;20.992;2022-10-18T15:41:55;14.90;;;9.60;;
56820;SDS011;42702;50.178;20.992;2022-10-18T15:44:30;14.90;;;7.50;;
56820;SDS011;42702;50.178;20.992;2022-10-18T15:58:36;12.90;;;8.10;;
56820;SDS011;42702;50.178;20.992;2022-10-18T16:01:19;16.60;;;9.50;;
56820;SDS011;42702;50.178;20.992;2022-10-18T16:03:50;15.20;;;8.10;;
56820;SDS011;42702;50.178;20.992;2022-10-18T16:06:18;16.10;;;9.40;;
56820;SDS011;42702;50.178;20.992;2022-10-18T16:08:48;23.80;;;12.20;;
56820;SDS011;42702;50.178;20.992;2022-10-18T16:11:21;21.70;;;12.30;;
56820;SDS011;42702;50.178;20.992;2022-10-18T16:13:51;25.30;;;12.40;;
56820;SDS011;42702;50.178;20.992;2022-10-18T16:16:26;34.00;;;14.20;;
56820;SDS011;42702;50.178;20.992;2022-10-18T16:18:56;29.10;;;13.50;;
56820;SDS011;42702;50.178;20.992;2022-10-18T16:21:28;35.60;;;15.50;;
56820;SDS011;42702;50.178;20.992;2022-10-18T16:23:58;29.00;;;14.30;;
56820;SDS011;42702;50.178;20.992;2022-10-18T16:26:27;31.30;;;13.90;;
56820;SDS011;42702;50.178;20.992;2022-10-18T16:28:56;37.10;;;16.50;;
56820;SDS011;42702;50.178;20.992;2022-10-18T16:31:26;38.20;;;18.30;;
56820;SDS011;42702;50.178;20.992;2022-10-18T16:33:56;47.40;;;23.00;;
56820;SDS011;42702;50.178;20.992;2022-10-18T16:36:26;57.40;;;26.20;;
56820;SDS011;42702;50.178;20.992;2022-10-18T16:38:56;52.40;;;26.20;;
56820;SDS011;42702;50.178;20.992;2022-10-18T16:41:27;50.50;;;25.80;;
56820;SDS011;42702;50.178;20.992;2022-10-18T16:43:55;51.70;;;24.80;;
56820;SDS011;42702;50.178;20.992;2022-10-18T16:46:27;54.90;;;25.50;;
56820;SDS011;42702;50.178;20.992;2022-10-18T16:48:58;50.70;;;25.70;;
56820;SDS011;42702;50.178;20.992;2022-10-18T16:51:27;55.50;;;26.60;;
56820;SDS011;42702;50.178;20.992;2022-10-18T16:53:55;51.70;;;23.50;;
56820;SDS011;42702;50.178;20.992;2022-10-18T16:56:28;54.10;;;26.70;;
56820;SDS011;42702;50.178;20.992;2022-10-18T16:58:58;49.30;;;24.10;;
56820;SDS011;42702;50.178;20.992;2022-10-18T17:01:26;54.60;;;26.10;;
56820;SDS011;42702;50.178;20.992;2022-10-18T17:03:54;45.80;;;25.50;;
56820;SDS011;42702;50.178;20.992;2022-10-18T17:06:24;47.30;;;23.40;;
56820;SDS011;42702;50.178;20.992;2022-10-18T17:08:55;45.70;;;22.40;;
56820;SDS011;42702;50.178;20.992;2022-10-18T17:11:24;41.20;;;22.10;;
56820;SDS011;42702;50.178;20.992;2022-10-18T17:13:55;44.60;;;23.20;;
56820;SDS011;42702;50.178;20.992;2022-10-18T17:16:27;50.20;;;23.40;;
56820;SDS011;42702;50.178;20.992;2022-10-18T17:18:58;42.50;;;23.70;;
56820;SDS011;42702;50.178;20.992;2022-10-18T17:21:29;47.50;;;24.70;;
56820;SDS011;42702;50.178;20.992;2022-10-18T17:23:58;55.90;;;27.70;;
56820;SDS011;42702;50.178;20.992;2022-10-18T17:26:28;51.70;;;26.90;;
56820;SDS011;42702;50.178;20.992;2022-10-18T17:29:01;61.10;;;31.40;;
56820;SDS011;42702;50.178;20.992;2022-10-18T17:31:31;68.90;;;32.30;;
56820;SDS011;42702;50.178;20.992;2022-10-18T17:34:00;39.00;;;20.60;;
56820;SDS011;42702;50.178;20.992;2022-10-18T17:36:29;40.80;;;20.60;;